sensor_id;sensor_type;location;lat;lon;timestamp;P1;durP1;ratioP1;P2;durP2;ratioP2
23596;SDS011;40226;50.874;4.394;2024-02-16T00:00:24;9.57;;;3.50;;
23596;SDS011;40226;50.874;4.394;2024-02-16T00:02:50;6.15;;;2.97;;
23596;SDS011;40226;50.874;4.394;2024-02-16T00:05:16;5.05;;;3.30;;
23596;SDS011;40226;50.874;4.394;2024-02-16T00:07:42;8.63;;;3.28;;
23596;SDS011;40226;50.874;4.394;2024-02-16T00:10:08;5.78;;;3.10;;
23596;SDS011;40226;50.874;4.394;2024-02-16T00:12:34;6.22;;;3.15;;
23596;SDS011;40226;50.874;4.394;2024-02-16T00:15:00;6.65;;;3.50;;
23596;SDS011;40226;50.874;4.394;2024-02-16T00:17:27;5.88;;;3.20;;
23596;SDS011;40226;50.874;4.394;2024-02-16T00:19:53;6.00;;;3.08;;
23596;SDS011;40226;50.874;4.394;2024-02-16T00:22:19;7.68;;;3.30;;
23596;SDS011;40226;50.874;4.394;2024-02-16T00:24:45;7.95;;;3.47;;
23596;SDS011;40226;50.874;4.394;2024-02-16T00:27:11;5.68;;;3.30;;
23596;SDS011;40226;50.874;4.394;2024-02-16T00:29:37;5.82;;;3.70;;
23596;SDS011;40226;50.874;4.394;2024-02-16T00:32:03;5.65;;;3.47;;
23596;SDS011;40226;50.874;4.394;2024-02-16T00:34:31;7.50;;;3.28;;
23596;SDS011;40226;50.874;4.394;2024-02-16T00:36:57;8.00;;;3.58;;
23596;SDS011;40226;50.874;4.394;2024-02-16T00:39:23;5.82;;;3.47;;
23596;SDS011;40226;50.874;4.394;2024-02-16T00:41:49;8.32;;;3.20;;
23596;SDS011;40226;50.874;4.394;2024-02-16T00:44:15;5.90;;;3.60;;
23596;SDS011;40226;50.874;4.394;2024-02-16T00:46:41;5.97;;;3.15;;
23596;SDS011;40226;50.874;4.394;2024-02-16T00:49:06;5.15;;;3.00;;
23596;SDS011;40226;50.874;4.394;2024-02-16T00:51:35;7.28;;;3.40;;
23596;SDS011;40226;50.874;4.394;2024-02-16T00:54:03;6.53;;;3.75;;
23596;SDS011;40226;50.874;4.394;2024-02-16T00:56:29;5.65;;;3.20;;
23596;SDS011;40226;50.874;4.394;2024-02-16T00:58:55;5.00;;;3.30;;
23596;SDS011;40226;50.874;4.394;2024-02-16T01:01:21;4.97;;;3.20;;
23596;SDS011;40226;50.874;4.394;2024-02-16T01:03:48;6.05;;;3.17;;
23596;SDS011;40226;50.874;4.394;2024-02-16T01:06:14;6.68;;;3.40;;
23596;SDS011;40226;50.874;4.394;2024-02-16T01:08:40;11.02;;;3.90;;
23596;SDS011;40226;50.874;4.394;2024-02-16T01:11:06;6.45;;;3.22;;
23596;SDS011;40226;50.874;4.394;2024-02-16T01:13:32;6.90;;;3.30;;
23596;SDS011;40226;50.874;4.394;2024-02-16T01:15:58;6.43;;;3.75;;
23596;SDS011;40226;50.874;4.394;2024-02-16T01:18:24;6.55;;;3.30;;
23596;SDS011;40226;50.874;4.394;2024-02-16T01:20:51;6.93;;;3.42;;
23596;SDS011;40226;50.874;4.394;2024-02-16T01:23:16;7.40;;;3.40;;
23596;SDS011;40226;50.874;4.394;2024-02-16T01:25:42;6.30;;;3.45;;
23596;SDS011;40226;50.874;4.394;2024-02-16T01:28:08;6.28;;;3.50;;
23596;SDS011;40226;50.874;4.394;2024-02-16T01:30:33;6.22;;;3.38;;
23596;SDS011;40226;50.874;4.394;2024-02-16T01:32:59;6.00;;;3.28;;
23596;SDS011;40226;50.874;4.394;2024-02-16T01:35:24;5.57;;;3.28;;
23596;SDS011;40226;50.874;4.394;2024-02-16T01:37:50;4.97;;;3.10;;
23596;SDS011;40226;50.874;4.394;2024-02-16T01:40:16;5.47;;;3.47;;
23596;SDS011;40226;50.874;4.394;2024-02-16T01:42:46;6.20;;;3.28;;
23596;SDS011;40226;50.874;4.394;2024-02-16T01:45:13;7.15;;;3.55;;
23596;SDS011;40226;50.874;4.394;2024-02-16T01:47:38;6.80;;;3.72;;
23596;SDS011;40226;50.874;4.394;2024-02-16T01:50:07;6.63;;;3.45;;
23596;SDS011;40226;50.874;4.394;2024-02-16T01:52:34;6.15;;;3.35;;
23596;SDS011;40226;50.874;4.394;2024-02-16T01:55:02;9.48;;;3.95;;
23596;SDS011;40226;50.874;4.394;2024-02-16T01:57:39;6.50;;;3.50;;
23596;SDS011;40226;50.874;4.394;2024-02-16T02:00:07;6.45;;;3.58;;
23596;SDS011;40226;50.874;4.394;2024-02-16T02:02:34;4.70;;;3.30;;
23596;SDS011;40226;50.874;4.394;2024-02-16T02:05:00;7.13;;;3.35;;
23596;SDS011;40226;50.874;4.394;2024-02-16T02:07:26;9.00;;;3.83;;
23596;SDS011;40226;50.874;4.394;2024-02-16T02:09:52;8.10;;;3.55;;
23596;SDS011;40226;50.874;4.394;2024-02-16T02:12:18;7.38;;;3.90;;
23596;SDS011;40226;50.874;4.394;2024-02-16T02:14:43;7.72;;;3.78;;
23596;SDS011;40226;50.874;4.394;2024-02-16T02:17:09;7.82;;;3.50;;
23596;SDS011;40226;50.874;4.394;2024-02-16T02:19:35;6.55;;;3.60;;
23596;SDS011;40226;50.874;4.394;2024-02-16T02:22:01;8.48;;;3.85;;
23596;SDS011;40226;50.874;4.394;2024-02-16T02:24:26;6.22;;;3.42;;
23596;SDS011;40226;50.874;4.394;2024-02-16T02:26:52;6.22;;;3.70;;
23596;SDS011;40226;50.874;4.394;2024-02-16T02:29:17;8.43;;;3.65;;
23596;SDS011;40226;50.874;4.394;2024-02-16T02:31:43;8.45;;;3.72;;
23596;SDS011;40226;50.874;4.394;2024-02-16T02:34:09;8.95;;;4.10;;
23596;SDS011;40226;50.874;4.394;2024-02-16T02:36:35;6.93;;;4.07;;
23596;SDS011;40226;50.874;4.394;2024-02-16T02:39:01;6.75;;;3.58;;
23596;SDS011;40226;50.874;4.394;2024-02-16T02:41:26;5.93;;;3.72;;
23596;SDS011;40226;50.874;4.394;2024-02-16T02:43:52;6.85;;;3.90;;
23596;SDS011;40226;50.874;4.394;2024-02-16T02:46:18;7.68;;;3.58;;
23596;SDS011;40226;50.874;4.394;2024-02-16T02:48:44;6.82;;;3.60;;
23596;SDS011;40226;50.874;4.394;2024-02-16T02:51:10;8.18;;;3.63;;
23596;SDS011;40226;50.874;4.394;2024-02-16T02:53:35;7.47;;;4.18;;
23596;SDS011;40226;50.874;4.394;2024-02-16T02:56:02;9.55;;;3.95;;
23596;SDS011;40226;50.874;4.394;2024-02-16T02:58:27;8.55;;;4.10;;
23596;SDS011;40226;50.874;4.394;2024-02-16T03:00:53;6.85;;;3.60;;
23596;SDS011;40226;50.874;4.394;2024-02-16T03:03:19;6.13;;;3.90;;
23596;SDS011;40226;50.874;4.394;2024-02-16T03:05:45;5.85;;;3.58;;
23596;SDS011;40226;50.874;4.394;2024-02-16T03:08:11;7.38;;;3.88;;
23596;SDS011;40226;50.874;4.394;2024-02-16T03:10:36;7.13;;;3.75;;
23596;SDS011;40226;50.874;4.394;2024-02-16T03:13:04;8.63;;;4.10;;
23596;SDS011;40226;50.874;4.394;2024-02-16T03:15:32;6.30;;;3.85;;
23596;SDS011;40226;50.874;4.394;2024-02-16T03:17:58;6.75;;;3.90;;
23596;SDS011;40226;50.874;4.394;2024-02-16T03:20:24;12.15;;;3.85;;
23596;SDS011;40226;50.874;4.394;2024-02-16T03:22:50;6.40;;;3.92;;
23596;SDS011;40226;50.874;4.394;2024-02-16T03:25:15;8.73;;;3.72;;
23596;SDS011;40226;50.874;4.394;2024-02-16T03:27:41;6.13;;;3.70;;
23596;SDS011;40226;50.874;4.394;2024-02-16T03:30:08;6.57;;;3.63;;
23596;SDS011;40226;50.874;4.394;2024-02-16T03:32:34;6.72;;;3.50;;
23596;SDS011;40226;50.874;4.394;2024-02-16T03:34:59;6.85;;;4.13;;
23596;SDS011;40226;50.874;4.394;2024-02-16T03:37:25;7.25;;;3.75;;
23596;SDS011;40226;50.874;4.394;2024-02-16T03:39:51;8.40;;;3.65;;
23596;SDS011;40226;50.874;4.394;2024-02-16T03:42:18;7.47;;;3.83;;
23596;SDS011;40226;50.874;4.394;2024-02-16T03:44:44;8.48;;;3.80;;
23596;SDS011;40226;50.874;4.394;2024-02-16T03:47:10;8.02;;;4.32;;
23596;SDS011;40226;50.874;4.394;2024-02-16T03:49:36;6.38;;;4.05;;
23596;SDS011;40226;50.874;4.394;2024-02-16T03:52:02;8.77;;;3.75;;
23596;SDS011;40226;50.874;4.394;2024-02-16T03:54:28;10.40;;;4.20;;
23596;SDS011;40226;50.874;4.394;2024-02-16T03:56:54;10.10;;;4.03;;
23596;SDS011;40226;50.874;4.394;2024-02-16T03:59:20;7.45;;;3.97;;
23596;SDS011;40226;50.874;4.394;2024-02-16T04:01:46;7.43;;;3.90;;
23596;SDS011;40226;50.874;4.394;2024-02-16T04:04:12;8.88;;;3.90;;
23596;SDS011;40226;50.874;4.394;2024-02-16T04:06:38;9.20;;;4.30;;
23596;SDS011;40226;50.874;4.394;2024-02-16T04:09:04;8.65;;;4.15;;
23596;SDS011;40226;50.874;4.394;2024-02-16T04:11:33;8.50;;;4.15;;
23596;SDS011;40226;50.874;4.394;2024-02-16T04:14:01;8.90;;;3.80;;
23596;SDS011;40226;50.874;4.394;2024-02-16T04:16:27;7.40;;;3.92;;
23596;SDS011;40226;50.874;4.394;2024-02-16T04:18:53;10.43;;;4.10;;
23596;SDS011;40226;50.874;4.394;2024-02-16T04:21:20;10.20;;;4.20;;
23596;SDS011;40226;50.874;4.394;2024-02-16T04:23:45;7.00;;;3.88;;
23596;SDS011;40226;50.874;4.394;2024-02-16T04:26:11;11.27;;;4.03;;
23596;SDS011;40226;50.874;4.394;2024-02-16T04:28:37;7.00;;;4.13;;
23596;SDS011;40226;50.874;4.394;2024-02-16T04:31:02;6.93;;;4.20;;
23596;SDS011;40226;50.874;4.394;2024-02-16T04:33:28;10.07;;;4.20;;
23596;SDS011;40226;50.874;4.394;2024-02-16T04:35:54;9.02;;;4.10;;
23596;SDS011;40226;50.874;4.394;2024-02-16T04:38:19;8.23;;;4.25;;
23596;SDS011;40226;50.874;4.394;2024-02-16T04:40:45;8.63;;;4.47;;
23596;SDS011;40226;50.874;4.394;2024-02-16T04:43:10;9.73;;;4.10;;
23596;SDS011;40226;50.874;4.394;2024-02-16T04:45:36;7.72;;;3.85;;
23596;SDS011;40226;50.874;4.394;2024-02-16T04:48:03;10.73;;;3.97;;
23596;SDS011;40226;50.874;4.394;2024-02-16T04:50:30;7.70;;;3.80;;
23596;SDS011;40226;50.874;4.394;2024-02-16T04:52:56;9.55;;;4.18;;
23596;SDS011;40226;50.874;4.394;2024-02-16T04:55:22;8.50;;;4.07;;
23596;SDS011;40226;50.874;4.394;2024-02-16T04:57:48;9.15;;;4.40;;
23596;SDS011;40226;50.874;4.394;2024-02-16T05:00:13;10.27;;;4.40;;
23596;SDS011;40226;50.874;4.394;2024-02-16T05:02:39;11.75;;;4.50;;
23596;SDS011;40226;50.874;4.394;2024-02-16T05:05:05;10.75;;;4.28;;
23596;SDS011;40226;50.874;4.394;2024-02-16T05:07:30;9.05;;;4.25;;
23596;SDS011;40226;50.874;4.394;2024-02-16T05:09:56;8.85;;;4.18;;
23596;SDS011;40226;50.874;4.394;2024-02-16T05:12:23;9.13;;;4.10;;
23596;SDS011;40226;50.874;4.394;2024-02-16T05:14:49;9.43;;;4.13;;
23596;SDS011;40226;50.874;4.394;2024-02-16T05:17:15;7.95;;;4.38;;
23596;SDS011;40226;50.874;4.394;2024-02-16T05:19:41;7.65;;;4.18;;
23596;SDS011;40226;50.874;4.394;2024-02-16T05:22:07;9.35;;;4.43;;
23596;SDS011;40226;50.874;4.394;2024-02-16T05:24:33;8.35;;;4.28;;
23596;SDS011;40226;50.874;4.394;2024-02-16T05:26:58;8.50;;;4.35;;
23596;SDS011;40226;50.874;4.394;2024-02-16T05:29:24;7.20;;;4.25;;
23596;SDS011;40226;50.874;4.394;2024-02-16T05:31:51;8.45;;;4.43;;
23596;SDS011;40226;50.874;4.394;2024-02-16T05:34:17;10.80;;;4.65;;
23596;SDS011;40226;50.874;4.394;2024-02-16T05:36:43;9.13;;;4.57;;
23596;SDS011;40226;50.874;4.394;2024-02-16T05:39:09;9.48;;;4.38;;
23596;SDS011;40226;50.874;4.394;2024-02-16T05:41:45;10.43;;;5.10;;
23596;SDS011;40226;50.874;4.394;2024-02-16T05:44:11;11.38;;;4.55;;
23596;SDS011;40226;50.874;4.394;2024-02-16T05:46:37;12.50;;;4.05;;
23596;SDS011;40226;50.874;4.394;2024-02-16T05:49:03;11.15;;;4.90;;
23596;SDS011;40226;50.874;4.394;2024-02-16T05:51:38;12.88;;;5.05;;
23596;SDS011;40226;50.874;4.394;2024-02-16T05:54:05;10.15;;;5.03;;
23596;SDS011;40226;50.874;4.394;2024-02-16T05:56:32;10.10;;;4.43;;
23596;SDS011;40226;50.874;4.394;2024-02-16T05:59:02;8.52;;;4.40;;
23596;SDS011;40226;50.874;4.394;2024-02-16T06:01:28;13.57;;;4.88;;
23596;SDS011;40226;50.874;4.394;2024-02-16T06:03:54;9.88;;;5.20;;
23596;SDS011;40226;50.874;4.394;2024-02-16T06:06:20;10.77;;;5.32;;
23596;SDS011;40226;50.874;4.394;2024-02-16T06:08:46;11.38;;;5.03;;
23596;SDS011;40226;50.874;4.394;2024-02-16T06:11:11;9.32;;;5.20;;
23596;SDS011;40226;50.874;4.394;2024-02-16T06:13:37;11.90;;;5.03;;
23596;SDS011;40226;50.874;4.394;2024-02-16T06:16:06;9.48;;;4.68;;
23596;SDS011;40226;50.874;4.394;2024-02-16T06:18:33;11.40;;;5.68;;
23596;SDS011;40226;50.874;4.394;2024-02-16T06:20:59;13.02;;;5.20;;
23596;SDS011;40226;50.874;4.394;2024-02-16T06:23:25;14.45;;;5.50;;
23596;SDS011;40226;50.874;4.394;2024-02-16T06:25:50;11.25;;;5.03;;
23596;SDS011;40226;50.874;4.394;2024-02-16T06:28:16;9.68;;;4.78;;
23596;SDS011;40226;50.874;4.394;2024-02-16T06:30:42;10.77;;;5.35;;
23596;SDS011;40226;50.874;4.394;2024-02-16T06:33:07;14.18;;;5.38;;
23596;SDS011;40226;50.874;4.394;2024-02-16T06:35:33;11.25;;;5.70;;
23596;SDS011;40226;50.874;4.394;2024-02-16T06:37:58;12.10;;;5.13;;
23596;SDS011;40226;50.874;4.394;2024-02-16T06:40:24;12.85;;;5.65;;
23596;SDS011;40226;50.874;4.394;2024-02-16T06:42:51;13.95;;;6.00;;
23596;SDS011;40226;50.874;4.394;2024-02-16T06:45:17;14.65;;;5.93;;
23596;SDS011;40226;50.874;4.394;2024-02-16T06:47:42;17.85;;;6.03;;
23596;SDS011;40226;50.874;4.394;2024-02-16T06:50:08;14.50;;;5.88;;
23596;SDS011;40226;50.874;4.394;2024-02-16T06:52:34;11.80;;;6.22;;
23596;SDS011;40226;50.874;4.394;2024-02-16T06:54:59;14.05;;;6.55;;
23596;SDS011;40226;50.874;4.394;2024-02-16T06:57:25;15.57;;;6.07;;
23596;SDS011;40226;50.874;4.394;2024-02-16T06:59:51;13.18;;;6.32;;
23596;SDS011;40226;50.874;4.394;2024-02-16T07:02:18;16.10;;;6.63;;
23596;SDS011;40226;50.874;4.394;2024-02-16T07:04:44;12.75;;;6.70;;
23596;SDS011;40226;50.874;4.394;2024-02-16T07:07:10;13.98;;;6.32;;
23596;SDS011;40226;50.874;4.394;2024-02-16T07:09:36;15.93;;;6.47;;
23596;SDS011;40226;50.874;4.394;2024-02-16T07:12:04;18.65;;;6.93;;
23596;SDS011;40226;50.874;4.394;2024-02-16T07:14:31;15.30;;;7.05;;
23596;SDS011;40226;50.874;4.394;2024-02-16T07:16:57;17.50;;;6.47;;
23596;SDS011;40226;50.874;4.394;2024-02-16T07:19:23;18.98;;;7.38;;
23596;SDS011;40226;50.874;4.394;2024-02-16T07:21:49;22.08;;;6.88;;
23596;SDS011;40226;50.874;4.394;2024-02-16T07:24:15;13.93;;;7.18;;
23596;SDS011;40226;50.874;4.394;2024-02-16T07:26:41;15.00;;;6.82;;
23596;SDS011;40226;50.874;4.394;2024-02-16T07:29:07;18.13;;;6.63;;
23596;SDS011;40226;50.874;4.394;2024-02-16T07:31:33;15.57;;;6.50;;
23596;SDS011;40226;50.874;4.394;2024-02-16T07:33:59;14.40;;;6.60;;
23596;SDS011;40226;50.874;4.394;2024-02-16T07:36:25;20.10;;;7.32;;
23596;SDS011;40226;50.874;4.394;2024-02-16T07:38:51;18.10;;;6.50;;
23596;SDS011;40226;50.874;4.394;2024-02-16T07:41:16;14.57;;;6.20;;
23596;SDS011;40226;50.874;4.394;2024-02-16T07:43:42;16.00;;;6.80;;
23596;SDS011;40226;50.874;4.394;2024-02-16T07:46:07;16.95;;;6.88;;
23596;SDS011;40226;50.874;4.394;2024-02-16T07:48:33;17.33;;;7.25;;
23596;SDS011;40226;50.874;4.394;2024-02-16T07:51:00;15.48;;;7.35;;
23596;SDS011;40226;50.874;4.394;2024-02-16T07:53:27;17.77;;;7.32;;
23596;SDS011;40226;50.874;4.394;2024-02-16T07:55:53;20.20;;;7.65;;
23596;SDS011;40226;50.874;4.394;2024-02-16T07:58:19;17.40;;;7.25;;
23596;SDS011;40226;50.874;4.394;2024-02-16T08:00:45;25.98;;;7.80;;
23596;SDS011;40226;50.874;4.394;2024-02-16T08:03:10;18.00;;;7.80;;
23596;SDS011;40226;50.874;4.394;2024-02-16T08:05:36;18.67;;;8.00;;
23596;SDS011;40226;50.874;4.394;2024-02-16T08:08:02;18.65;;;7.25;;
23596;SDS011;40226;50.874;4.394;2024-02-16T08:10:28;25.02;;;8.00;;
23596;SDS011;40226;50.874;4.394;2024-02-16T08:12:54;22.35;;;7.97;;
23596;SDS011;40226;50.874;4.394;2024-02-16T08:15:19;18.02;;;8.13;;
23596;SDS011;40226;50.874;4.394;2024-02-16T08:17:48;36.35;;;9.40;;
23596;SDS011;40226;50.874;4.394;2024-02-16T08:20:17;21.95;;;7.85;;
23596;SDS011;40226;50.874;4.394;2024-02-16T08:22:43;20.48;;;7.60;;
23596;SDS011;40226;50.874;4.394;2024-02-16T08:25:09;15.48;;;7.45;;
23596;SDS011;40226;50.874;4.394;2024-02-16T08:27:34;16.75;;;7.95;;
23596;SDS011;40226;50.874;4.394;2024-02-16T08:30:00;17.75;;;7.65;;
23596;SDS011;40226;50.874;4.394;2024-02-16T08:32:27;22.25;;;9.30;;
23596;SDS011;40226;50.874;4.394;2024-02-16T08:34:53;21.98;;;8.65;;
23596;SDS011;40226;50.874;4.394;2024-02-16T08:37:21;22.48;;;8.73;;
23596;SDS011;40226;50.874;4.394;2024-02-16T08:39:46;20.23;;;8.68;;
23596;SDS011;40226;50.874;4.394;2024-02-16T08:42:12;22.02;;;8.15;;
23596;SDS011;40226;50.874;4.394;2024-02-16T08:44:38;23.55;;;8.82;;
23596;SDS011;40226;50.874;4.394;2024-02-16T08:47:07;31.00;;;9.18;;
23596;SDS011;40226;50.874;4.394;2024-02-16T08:49:33;20.80;;;8.32;;
23596;SDS011;40226;50.874;4.394;2024-02-16T08:51:59;25.88;;;8.98;;
23596;SDS011;40226;50.874;4.394;2024-02-16T08:54:25;26.42;;;9.45;;
23596;SDS011;40226;50.874;4.394;2024-02-16T08:56:52;22.67;;;9.55;;
23596;SDS011;40226;50.874;4.394;2024-02-16T08:59:18;24.10;;;9.25;;
23596;SDS011;40226;50.874;4.394;2024-02-16T09:01:44;23.98;;;9.38;;
23596;SDS011;40226;50.874;4.394;2024-02-16T09:04:09;22.48;;;8.70;;
23596;SDS011;40226;50.874;4.394;2024-02-16T09:06:35;21.27;;;8.95;;
23596;SDS011;40226;50.874;4.394;2024-02-16T09:09:01;25.90;;;9.32;;
23596;SDS011;40226;50.874;4.394;2024-02-16T09:11:27;21.45;;;9.45;;
23596;SDS011;40226;50.874;4.394;2024-02-16T09:13:53;21.00;;;9.52;;
23596;SDS011;40226;50.874;4.394;2024-02-16T09:16:19;23.77;;;9.60;;
23596;SDS011;40226;50.874;4.394;2024-02-16T09:18:45;20.75;;;9.27;;
23596;SDS011;40226;50.874;4.394;2024-02-16T09:21:13;19.25;;;8.73;;
23596;SDS011;40226;50.874;4.394;2024-02-16T09:23:39;19.08;;;9.25;;
23596;SDS011;40226;50.874;4.394;2024-02-16T09:26:05;22.88;;;9.13;;
23596;SDS011;40226;50.874;4.394;2024-02-16T09:28:30;23.55;;;9.38;;
23596;SDS011;40226;50.874;4.394;2024-02-16T09:30:57;23.33;;;9.70;;
23596;SDS011;40226;50.874;4.394;2024-02-16T09:33:23;21.40;;;10.07;;
23596;SDS011;40226;50.874;4.394;2024-02-16T09:35:49;28.58;;;10.98;;
23596;SDS011;40226;50.874;4.394;2024-02-16T09:38:15;22.90;;;10.82;;
23596;SDS011;40226;50.874;4.394;2024-02-16T09:40:40;19.95;;;10.10;;
23596;SDS011;40226;50.874;4.394;2024-02-16T09:43:06;24.27;;;9.52;;
23596;SDS011;40226;50.874;4.394;2024-02-16T09:45:32;19.38;;;9.68;;
23596;SDS011;40226;50.874;4.394;2024-02-16T09:47:58;20.15;;;9.63;;
23596;SDS011;40226;50.874;4.394;2024-02-16T09:50:25;21.95;;;9.77;;
23596;SDS011;40226;50.874;4.394;2024-02-16T09:52:52;31.95;;;10.45;;
23596;SDS011;40226;50.874;4.394;2024-02-16T09:55:19;21.50;;;9.70;;
23596;SDS011;40226;50.874;4.394;2024-02-16T09:57:45;23.02;;;9.98;;
23596;SDS011;40226;50.874;4.394;2024-02-16T10:00:12;38.38;;;11.27;;
23596;SDS011;40226;50.874;4.394;2024-02-16T10:02:45;19.42;;;9.75;;
23596;SDS011;40226;50.874;4.394;2024-02-16T10:05:12;19.20;;;9.20;;
23596;SDS011;40226;50.874;4.394;2024-02-16T10:07:38;17.23;;;8.90;;
23596;SDS011;40226;50.874;4.394;2024-02-16T10:10:05;26.45;;;9.85;;
23596;SDS011;40226;50.874;4.394;2024-02-16T10:12:31;17.02;;;9.75;;
23596;SDS011;40226;50.874;4.394;2024-02-16T10:14:56;17.63;;;9.77;;
23596;SDS011;40226;50.874;4.394;2024-02-16T10:17:24;17.60;;;9.82;;
23596;SDS011;40226;50.874;4.394;2024-02-16T10:19:56;20.95;;;10.35;;
23596;SDS011;40226;50.874;4.394;2024-02-16T10:22:24;22.83;;;10.18;;
23596;SDS011;40226;50.874;4.394;2024-02-16T10:24:49;19.35;;;9.68;;
23596;SDS011;40226;50.874;4.394;2024-02-16T10:27:15;26.48;;;9.95;;
23596;SDS011;40226;50.874;4.394;2024-02-16T10:29:44;26.35;;;10.20;;
23596;SDS011;40226;50.874;4.394;2024-02-16T10:32:14;28.20;;;11.53;;
23596;SDS011;40226;50.874;4.394;2024-02-16T10:34:40;23.25;;;10.02;;
23596;SDS011;40226;50.874;4.394;2024-02-16T10:37:06;24.05;;;10.68;;
23596;SDS011;40226;50.874;4.394;2024-02-16T10:39:32;24.70;;;9.68;;
23596;SDS011;40226;50.874;4.394;2024-02-16T10:41:58;21.88;;;11.07;;
23596;SDS011;40226;50.874;4.394;2024-02-16T10:44:27;28.27;;;11.95;;
23596;SDS011;40226;50.874;4.394;2024-02-16T10:46:53;23.65;;;11.43;;
23596;SDS011;40226;50.874;4.394;2024-02-16T10:49:22;27.67;;;11.80;;
23596;SDS011;40226;50.874;4.394;2024-02-16T10:51:50;25.20;;;11.60;;
23596;SDS011;40226;50.874;4.394;2024-02-16T10:54:22;25.25;;;11.85;;
23596;SDS011;40226;50.874;4.394;2024-02-16T10:56:52;24.60;;;12.02;;
23596;SDS011;40226;50.874;4.394;2024-02-16T10:59:18;23.98;;;12.30;;
23596;SDS011;40226;50.874;4.394;2024-02-16T11:01:44;30.90;;;12.10;;
23596;SDS011;40226;50.874;4.394;2024-02-16T11:04:14;25.42;;;12.23;;
23596;SDS011;40226;50.874;4.394;2024-02-16T11:06:59;31.23;;;12.70;;
23596;SDS011;40226;50.874;4.394;2024-02-16T11:09:25;26.10;;;11.77;;
23596;SDS011;40226;50.874;4.394;2024-02-16T11:11:54;24.05;;;11.45;;
23596;SDS011;40226;50.874;4.394;2024-02-16T11:14:23;31.08;;;13.55;;
23596;SDS011;40226;50.874;4.394;2024-02-16T11:16:49;24.60;;;13.32;;
23596;SDS011;40226;50.874;4.394;2024-02-16T11:19:19;29.52;;;13.85;;
23596;SDS011;40226;50.874;4.394;2024-02-16T11:21:58;26.95;;;14.57;;
23596;SDS011;40226;50.874;4.394;2024-02-16T11:24:30;31.33;;;14.75;;
23596;SDS011;40226;50.874;4.394;2024-02-16T11:26:57;24.23;;;14.13;;
23596;SDS011;40226;50.874;4.394;2024-02-16T11:29:23;33.25;;;15.65;;
23596;SDS011;40226;50.874;4.394;2024-02-16T11:31:50;32.80;;;15.40;;
23596;SDS011;40226;50.874;4.394;2024-02-16T11:34:22;30.48;;;15.38;;
23596;SDS011;40226;50.874;4.394;2024-02-16T11:36:52;31.70;;;14.18;;
23596;SDS011;40226;50.874;4.394;2024-02-16T11:39:19;30.65;;;16.83;;
23596;SDS011;40226;50.874;4.394;2024-02-16T11:41:45;29.67;;;17.27;;
23596;SDS011;40226;50.874;4.394;2024-02-16T11:44:12;31.30;;;15.88;;
23596;SDS011;40226;50.874;4.394;2024-02-16T11:46:38;27.10;;;15.77;;
23596;SDS011;40226;50.874;4.394;2024-02-16T11:49:05;29.65;;;14.88;;
23596;SDS011;40226;50.874;4.394;2024-02-16T11:51:32;29.42;;;16.23;;
23596;SDS011;40226;50.874;4.394;2024-02-16T11:53:58;33.47;;;16.10;;
23596;SDS011;40226;50.874;4.394;2024-02-16T11:56:24;30.05;;;16.80;;
23596;SDS011;40226;50.874;4.394;2024-02-16T11:58:51;31.10;;;16.67;;
23596;SDS011;40226;50.874;4.394;2024-02-16T12:01:17;32.95;;;16.95;;
23596;SDS011;40226;50.874;4.394;2024-02-16T12:03:43;32.67;;;19.05;;
23596;SDS011;40226;50.874;4.394;2024-02-16T12:06:08;31.08;;;18.60;;
23596;SDS011;40226;50.874;4.394;2024-02-16T12:08:44;35.45;;;17.20;;
23596;SDS011;40226;50.874;4.394;2024-02-16T12:11:09;29.27;;;15.50;;
23596;SDS011;40226;50.874;4.394;2024-02-16T12:13:35;23.67;;;13.05;;
23596;SDS011;40226;50.874;4.394;2024-02-16T12:16:01;1.42;;;1.30;;
23596;SDS011;40226;50.874;4.394;2024-02-16T12:18:27;1.55;;;0.45;;
23596;SDS011;40226;50.874;4.394;2024-02-16T12:21:04;1.80;;;1.52;;
23596;SDS011;40226;50.874;4.394;2024-02-16T12:23:31;1.67;;;0.98;;
23596;SDS011;40226;50.874;4.394;2024-02-16T12:25:57;0.38;;;0.38;;
23596;SDS011;40226;50.874;4.394;2024-02-16T12:28:24;0.10;;;0.10;;
23596;SDS011;40226;50.874;4.394;2024-02-16T12:30:51;2.42;;;1.27;;
23596;SDS011;40226;50.874;4.394;2024-02-16T12:33:17;0.60;;;0.60;;
23596;SDS011;40226;50.874;4.394;2024-02-16T12:35:42;0.45;;;0.45;;
23596;SDS011;40226;50.874;4.394;2024-02-16T12:38:08;0.55;;;0.45;;
23596;SDS011;40226;50.874;4.394;2024-02-16T12:40:34;1.17;;;1.08;;
23596;SDS011;40226;50.874;4.394;2024-02-16T12:43:00;0.28;;;0.28;;
23596;SDS011;40226;50.874;4.394;2024-02-16T12:45:26;0.82;;;0.82;;
23596;SDS011;40226;50.874;4.394;2024-02-16T12:47:51;0.90;;;0.90;;
23596;SDS011;40226;50.874;4.394;2024-02-16T12:50:17;0.32;;;0.32;;
23596;SDS011;40226;50.874;4.394;2024-02-16T12:52:43;1.02;;;0.65;;
23596;SDS011;40226;50.874;4.394;2024-02-16T12:55:09;0.65;;;0.45;;
23596;SDS011;40226;50.874;4.394;2024-02-16T12:57:37;1.02;;;0.93;;
23596;SDS011;40226;50.874;4.394;2024-02-16T13:00:03;0.52;;;0.52;;
23596;SDS011;40226;50.874;4.394;2024-02-16T13:02:30;1.15;;;0.73;;
23596;SDS011;40226;50.874;4.394;2024-02-16T13:04:56;1.27;;;0.60;;
23596;SDS011;40226;50.874;4.394;2024-02-16T13:07:23;0.73;;;0.73;;
23596;SDS011;40226;50.874;4.394;2024-02-16T13:09:49;0.43;;;0.43;;
23596;SDS011;40226;50.874;4.394;2024-02-16T13:12:16;0.82;;;0.63;;
23596;SDS011;40226;50.874;4.394;2024-02-16T13:14:42;1.27;;;1.13;;
23596;SDS011;40226;50.874;4.394;2024-02-16T13:17:10;1.40;;;0.80;;
23596;SDS011;40226;50.874;4.394;2024-02-16T13:19:45;0.35;;;0.35;;
23596;SDS011;40226;50.874;4.394;2024-02-16T13:22:11;0.45;;;0.45;;
23596;SDS011;40226;50.874;4.394;2024-02-16T13:24:36;0.65;;;0.57;;
23596;SDS011;40226;50.874;4.394;2024-02-16T13:27:02;4.38;;;2.42;;
23596;SDS011;40226;50.874;4.394;2024-02-16T13:29:29;0.77;;;0.70;;
23596;SDS011;40226;50.874;4.394;2024-02-16T13:31:54;1.08;;;0.98;;
23596;SDS011;40226;50.874;4.394;2024-02-16T13:34:20;6.90;;;1.35;;
23596;SDS011;40226;50.874;4.394;2024-02-16T13:36:46;0.77;;;0.77;;
23596;SDS011;40226;50.874;4.394;2024-02-16T13:39:12;2.05;;;0.93;;
23596;SDS011;40226;50.874;4.394;2024-02-16T13:41:39;0.20;;;0.20;;
23596;SDS011;40226;50.874;4.394;2024-02-16T13:44:05;3.80;;;1.80;;
23596;SDS011;40226;50.874;4.394;2024-02-16T13:46:31;2.03;;;1.08;;
23596;SDS011;40226;50.874;4.394;2024-02-16T13:48:57;8.30;;;1.85;;
23596;SDS011;40226;50.874;4.394;2024-02-16T13:51:24;0.60;;;0.60;;
23596;SDS011;40226;50.874;4.394;2024-02-16T13:53:49;2.13;;;1.52;;
23596;SDS011;40226;50.874;4.394;2024-02-16T13:56:16;1.85;;;1.08;;
23596;SDS011;40226;50.874;4.394;2024-02-16T13:58:42;1.80;;;1.70;;
23596;SDS011;40226;50.874;4.394;2024-02-16T14:01:07;1.13;;;1.10;;
23596;SDS011;40226;50.874;4.394;2024-02-16T14:03:33;0.90;;;0.90;;
23596;SDS011;40226;50.874;4.394;2024-02-16T14:06:01;1.05;;;0.95;;
23596;SDS011;40226;50.874;4.394;2024-02-16T14:08:27;0.20;;;0.20;;
23596;SDS011;40226;50.874;4.394;2024-02-16T14:10:53;1.27;;;1.00;;
23596;SDS011;40226;50.874;4.394;2024-02-16T14:13:18;0.80;;;0.73;;
23596;SDS011;40226;50.874;4.394;2024-02-16T14:15:44;0.55;;;0.55;;
23596;SDS011;40226;50.874;4.394;2024-02-16T14:18:10;0.50;;;0.50;;
23596;SDS011;40226;50.874;4.394;2024-02-16T14:20:36;0.65;;;0.43;;
23596;SDS011;40226;50.874;4.394;2024-02-16T14:23:01;0.98;;;0.80;;
23596;SDS011;40226;50.874;4.394;2024-02-16T14:25:32;0.63;;;0.30;;
23596;SDS011;40226;50.874;4.394;2024-02-16T14:27:58;1.85;;;1.75;;
23596;SDS011;40226;50.874;4.394;2024-02-16T14:30:24;5.30;;;0.95;;
23596;SDS011;40226;50.874;4.394;2024-02-16T14:32:49;0.28;;;0.28;;
23596;SDS011;40226;50.874;4.394;2024-02-16T14:35:16;0.68;;;0.47;;